F/V Mabon III — FIJH — position and weather

sailwx.info

Track history (hours):
 
Tides and Currents Weather Stations Pressure Air Temp Water Temp Dewpoint Dewpoint Depression Visibility Wind Speed Wind Dir Waves Ship Positions

F/V Mabon III

Last reported at 2018-Jun-23 11:00 UTC. Time now 2018-Jun-23 14:01 UTC.
Position N 47°03' W 002°27'.

Length 20 m.

Type: Fishing. MMSI: 228042600.

Date/timePositionNaut miles runAvg speedWind from/ knotsBaromVisibWave heightAir tempDewpointWater temp
2018-Jun-23 11:00N 47°03' W 002°27'2 3.3
2018-Jun-23 10:29N 47°02' W 002°29'6 3.6
2018-Jun-23 08:40N 46°57' W 002°35'1 3.4
2018-Jun-23 08:25N 46°57' W 002°36'2 1.0
2018-Jun-23 06:40N 46°55' W 002°37'1 3.0
2018-Jun-23 06:18N 46°56' W 002°36'1 3.0
2018-Jun-23 05:59N 46°57' W 002°35'2 3.2
2018-Jun-23 05:30N 46°58' W 002°34'2 3.4
2018-Jun-23 04:49N 46°60' W 002°32'1 3.7
2018-Jun-23 04:30N 47°01' W 002°31'2 3.9
2018-Jun-23 04:00N 47°02' W 002°29'2 4.0
2018-Jun-23 03:30N 47°03' W 002°26'2 4.1
2018-Jun-23 03:00N 47°05' W 002°24'1 2.6
2018-Jun-23 02:30N 47°04' W 002°25'2 3.1
2018-Jun-23 01:57N 47°03' W 002°27'2 3.3
2018-Jun-23 01:27N 47°02' W 002°29'1 3.3
2018-Jun-23 01:00N 47°01' W 002°31'2 3.4
2018-Jun-23 00:30N 46°59' W 002°32'2 3.4
2018-Jun-23 00:00N 46°58' W 002°34'2 3.4
2018-Jun-22 23:21N 46°56' W 002°36'1 2.4
2018-Jun-22 23:00N 46°56' W 002°37'2 3.0
2018-Jun-22 22:25N 46°55' W 002°39'11 1.0
2018-Jun-22 11:39N 47°02' W 002°28'0 2.0
2018-Jun-22 11:29N 47°02' W 002°28'11 1.3
2018-Jun-22 03:08N 46°58' W 002°43'0 3.1
2018-Jun-22 03:00N 46°58' W 002°43'2 3.0
2018-Jun-22 02:21N 46°56' W 002°41'1 2.5
2018-Jun-22 01:56N 46°55' W 002°41'1 2.6
2018-Jun-22 01:30N 46°54' W 002°40'4 3.1
2018-Jun-22 00:11N 46°51' W 002°36'2 2.7
2018-Jun-21 23:23N 46°49' W 002°35'2 2.7
2018-Jun-21 22:48N 46°48' W 002°33'1 2.6
2018-Jun-21 22:30N 46°47' W 002°32'1 1.0
2018-Jun-21 21:25N 46°48' W 002°31'8 6.5
2018-Jun-21 20:13N 46°44' W 002°20'31 4.9
2018-Jun-21 14:02N 46°56' W 003°02'0 7.7
2018-Jun-21 13:59N 46°55' W 003°02'1 2.6
2018-Jun-21 13:27N 46°54' W 003°04'1 1.7
2018-Jun-21 12:48N 46°54' W 003°05'1 1.7
2018-Jun-21 12:24N 46°54' W 003°05'0 0.8
2018-Jun-21 11:57N 46°54' W 003°05'1 1.2
2018-Jun-21 11:30N 46°53' W 003°05'0 0.7
2018-Jun-21 11:00N 46°53' W 003°06'3 5.4
2018-Jun-21 10:28N 46°53' W 003°10'1 1.3
2018-Jun-21 10:00N 46°53' W 003°09'1 2.2
2018-Jun-21 09:22N 46°54' W 003°07'2 3.9
2018-Jun-21 08:57N 46°53' W 003°09'2 1.7
2018-Jun-21 08:01N 46°53' W 003°07'1 6.0
2018-Jun-21 07:54N 46°54' W 003°07'1 2.6
2018-Jun-21 07:29N 46°55' W 003°08'0 1.0
2018-Jun-21 07:00N 46°55' W 003°09'1 2.5
2018-Jun-21 06:30N 46°54' W 003°10'3 4.3
2018-Jun-21 05:54N 46°55' W 003°07'4 7.6
2018-Jun-21 05:21N 46°55' W 003°01'3 8.4
2018-Jun-21 04:58N 46°55' W 002°56'4 8.7
2018-Jun-21 04:30N 46°55' W 002°50'4 8.7
2018-Jun-21 04:00N 46°55' W 002°44'2 4.2
2018-Jun-21 03:30N 46°56' W 002°41'2 3.2
2018-Jun-21 03:00N 46°57' W 002°42'2 3.0
2018-Jun-21 02:30N 46°59' W 002°43'1 2.7
2018-Jun-21 02:00N 46°58' W 002°45'1 2.7
2018-Jun-21 01:30N 46°58' W 002°47'1 3.0
2018-Jun-21 01:00N 46°56' W 002°46'2 3.2
2018-Jun-21 00:30N 46°55' W 002°45'2 3.5
2018-Jun-21 00:00N 46°53' W 002°43'1 2.8
2018-Jun-20 23:30N 46°52' W 002°42'2 3.2
2018-Jun-20 23:00N 46°51' W 002°40'2 3.1
2018-Jun-20 22:30N 46°51' W 002°38'2 3.0
2018-Jun-20 22:00N 46°51' W 002°36'1 3.0
2018-Jun-20 21:30N 46°49' W 002°35'11 3.5
2018-Jun-20 18:25N 46°44' W 002°21'19 3.4
2018-Jun-20 12:49N 46°55' W 002°43'0 0.6
2018-Jun-20 12:26N 46°55' W 002°44'1 1.9
2018-Jun-20 11:42N 46°56' W 002°44'0 1.5
2018-Jun-20 11:30N 46°56' W 002°44'0 0.8
2018-Jun-20 10:59N 46°56' W 002°44'0 0.6
2018-Jun-20 10:30N 46°56' W 002°45'2 3.1
2018-Jun-20 09:59N 46°56' W 002°47'3 1.7
2018-Jun-20 08:14N 46°58' W 002°43'0 0.7
2018-Jun-20 07:59N 46°58' W 002°44'1 1.1
2018-Jun-20 07:30N 46°58' W 002°44'1 1.1
2018-Jun-20 06:43N 46°58' W 002°43'1 4.8
2018-Jun-20 06:30N 46°59' W 002°42'3 3.7
2018-Jun-20 05:49N 46°58' W 002°46'1 3.3
2018-Jun-20 05:30N 46°57' W 002°47'2 3.2
2018-Jun-20 05:00N 46°56' W 002°46'2 3.3
2018-Jun-20 04:27N 46°55' W 002°44'3 2.6
2018-Jun-20 03:26N 46°54' W 002°40'1 3.0
2018-Jun-20 03:00N 46°55' W 002°40'2 3.2
2018-Jun-20 02:28N 46°57' W 002°42'2 3.4
2018-Jun-20 02:00N 46°58' W 002°43'1 2.4
2018-Jun-20 01:30N 46°58' W 002°45'1 2.8
2018-Jun-20 01:00N 46°58' W 002°47'1 2.8
2018-Jun-20 00:30N 46°57' W 002°46'2 3.3
2018-Jun-20 00:00N 46°55' W 002°45'2 3.2
2018-Jun-19 23:26N 46°54' W 002°43'2 2.7
2018-Jun-19 22:50N 46°54' W 002°41'1 1.9
2018-Jun-19 22:22N 46°55' W 002°40'4 3.3
2018-Jun-19 21:19N 46°57' W 002°35'1 3.5
2018-Jun-19 20:54N 46°58' W 002°34'1 3.5
2018-Jun-19 20:29N 46°59' W 002°33'2 3.6
2018-Jun-19 19:59N 47°00' W 002°31'2 3.5
2018-Jun-19 19:29N 47°02' W 002°29'3 3.7
2018-Jun-19 18:38N 47°03' W 002°26'0 3.6
2018-Jun-19 18:30N 47°03' W 002°26'2 3.4
2018-Jun-19 18:00N 47°02' W 002°28'2 3.8
2018-Jun-19 17:24N 47°01' W 002°31'2 3.9
2018-Jun-19 16:59N 46°59' W 002°32'2 3.7
2018-Jun-19 16:30N 46°58' W 002°34'2 3.7
2018-Jun-19 15:58N 46°56' W 002°36'2 3.5
2018-Jun-19 15:30N 46°55' W 002°37'3 3.8
2018-Jun-19 14:48N 46°55' W 002°41'1 4.3
2018-Jun-19 14:27N 46°56' W 002°43'1 1.0
2018-Jun-19 13:53N 46°56' W 002°44'0 0.1
2018-Jun-19 13:20N 46°56' W 002°44'1 2.5
2018-Jun-19 12:52N 46°56' W 002°45'1 1.8
2018-Jun-19 12:26N 46°56' W 002°46'1 3.1
2018-Jun-19 12:00N 46°57' W 002°46'0 0.9
2018-Jun-19 11:30N 46°57' W 002°47'1 1.7
2018-Jun-19 11:00N 46°56' W 002°47'1 1.4
2018-Jun-19 10:30N 46°56' W 002°47'1 0.8
2018-Jun-19 09:40N 46°56' W 002°47'1 5.2
2018-Jun-19 09:30N 46°57' W 002°46'0 0.7
2018-Jun-19 08:59N 46°57' W 002°46'0 0.9
2018-Jun-19 08:30N 46°57' W 002°46'1 1.6
2018-Jun-19 08:00N 46°58' W 002°47'1 2.3
2018-Jun-19 07:30N 46°56' W 002°46'2 2.3
2018-Jun-19 06:28N 46°58' W 002°44'2 2.9
2018-Jun-19 05:53N 46°58' W 002°42'1 3.3
2018-Jun-19 05:29N 46°57' W 002°41'2 3.3
2018-Jun-19 05:00N 46°55' W 002°40'2 3.3
2018-Jun-19 04:29N 46°54' W 002°41'1 2.7
2018-Jun-19 03:58N 46°54' W 002°43'1 1.9
2018-Jun-19 03:30N 46°54' W 002°44'2 3.1
2018-Jun-19 03:00N 46°53' W 002°43'2 3.2
2018-Jun-19 02:29N 46°52' W 002°41'2 3.2
2018-Jun-19 02:00N 46°51' W 002°40'3 3.0
2018-Jun-19 01:00N 46°49' W 002°36'2 2.9
2018-Jun-19 00:27N 46°48' W 002°35'4 4.1
2018-Jun-18 23:25N 46°46' W 002°29'4 9.3
2018-Jun-18 22:58N 46°46' W 002°23'5 9.0
2018-Jun-18 22:26N 46°43' W 002°17'4 8.7
2018-Jun-18 22:00N 46°41' W 002°13'5 8.8
2018-Jun-18 21:28N 46°38' W 002°07'4 8.9
2018-Jun-18 21:00N 46°35' W 002°03'4 8.9
2018-Jun-18 20:30N 46°32' W 001°58'4 8.9
2018-Jun-18 20:00N 46°30' W 001°53'4 7.5
2018-Jun-18 19:30N 46°29' W 001°47'1 1.9
2018-Jun-18 19:00N 46°30' W 001°47'0 0.0
2018-Jun-18 18:30N 46°30' W 001°47'0 0.0
2018-Jun-18 18:00N 46°30' W 001°47'0 0.4
2018-Jun-18 17:30N 46°30' W 001°47'0 0.0
2018-Jun-18 17:00N 46°30' W 001°47'1 1.0
2018-Jun-18 16:30N 46°29' W 001°48'4 7.7
2018-Jun-18 16:00N 46°30' W 001°53'5 9.5
2018-Jun-18 15:30N 46°32' W 001°59'5 9.5
2018-Jun-18 15:00N 46°35' W 002°05'5 9.5
2018-Jun-18 14:30N 46°37' W 002°11'5 9.0
2018-Jun-18 14:00N 46°39' W 002°17'5 9.0
2018-Jun-18 13:26N 46°41' W 002°24'4 8.9
2018-Jun-18 13:00N 46°44' W 002°28'4 8.9
2018-Jun-18 12:30N 46°46' W 002°33'1 1.2
2018-Jun-18 11:55N 46°47' W 002°34'1 2.0
2018-Jun-18 11:30N 46°48' W 002°34'1 1.4
2018-Jun-18 10:56N 46°48' W 002°35'1 1.4
2018-Jun-18 10:16N 46°49' W 002°35'0 1.3
2018-Jun-18 10:00N 46°49' W 002°36'0 0.5
2018-Jun-18 09:29N 46°49' W 002°36'0 0.4
2018-Jun-18 09:00N 46°49' W 002°36'1 1.8
2018-Jun-18 08:30N 46°49' W 002°34'1 2.4
2018-Jun-18 07:57N 46°50' W 002°36'1 1.3
2018-Jun-18 06:52N 46°50' W 002°34'1 1.5
2018-Jun-18 06:29N 46°50' W 002°35'3 5.0
2018-Jun-18 05:57N 46°51' W 002°38'1 2.9
2018-Jun-18 05:28N 46°51' W 002°36'1 2.9
2018-Jun-18 05:00N 46°49' W 002°35'2 3.0
2018-Jun-18 04:14N 46°48' W 002°33'1 3.2
2018-Jun-18 03:59N 46°47' W 002°32'4 1.3
2018-Jun-18 01:15N 46°51' W 002°34'3 2.5
2018-Jun-18 00:05N 46°52' W 002°37'1 3.1
2018-Jun-17 23:54N 46°52' W 002°38'9 2.9
2018-Jun-17 20:39N 47°00' W 002°31'1 3.5
2018-Jun-17 20:14N 47°01' W 002°30'2 3.5
2018-Jun-17 19:44N 47°03' W 002°28'1 3.4
2018-Jun-17 19:24N 47°03' W 002°26'1 3.4
2018-Jun-17 19:00N 47°04' W 002°25'0 0.3
2018-Jun-17 18:30N 47°04' W 002°25'6 3.4
2018-Jun-17 16:47N 47°00' W 002°31'11 2.1
2018-Jun-17 11:32N 46°56' W 002°46'0 0.3
2018-Jun-17 11:30N 46°56' W 002°46'0 0.4
2018-Jun-17 10:59N 46°56' W 002°46'0 0.7
2018-Jun-17 10:30N 46°56' W 002°46'2 0.9
2018-Jun-17 08:40N 46°55' W 002°45'1 1.9
2018-Jun-17 08:13N 46°56' W 002°45'1 2.1
2018-Jun-17 07:53N 46°55' W 002°46'1 0.7
2018-Jun-17 07:00N 46°56' W 002°46'9 1.7
2018-Jun-17 01:35N 47°03' W 002°39'0 1.8
2018-Jun-17 01:30N 47°03' W 002°39'1 3.0
2018-Jun-17 01:00N 47°02' W 002°41'1 2.3
2018-Jun-17 00:30N 47°01' W 002°41'2 3.1
2018-Jun-16 23:59N 46°60' W 002°39'1 3.0
2018-Jun-16 23:30N 46°58' W 002°38'2 2.8
2018-Jun-16 22:59N 46°57' W 002°38'1 2.9
2018-Jun-16 22:29N 46°56' W 002°38'12 2.8
2018-Jun-16 18:16N 47°04' W 002°25'1 2.7
2018-Jun-16 18:00N 47°04' W 002°26'1 2.8
2018-Jun-16 17:28N 47°04' W 002°28'3 3.2
2018-Jun-16 16:38N 47°02' W 002°30'12 1.4
2018-Jun-16 08:27N 46°56' W 002°45'8 2.7
2018-Jun-16 05:22N 47°00' W 002°35'3 3.3
2018-Jun-16 04:19N 47°02' W 002°30'1 3.0
2018-Jun-16 04:00N 47°03' W 002°29'2 3.2
2018-Jun-16 03:30N 47°04' W 002°28'2 2.8
2018-Jun-16 02:53N 47°05' W 002°26'1 1.9
2018-Jun-16 02:30N 47°04' W 002°25'2 4.3
2018-Jun-16 02:00N 47°03' W 002°27'2 4.3
2018-Jun-16 01:27N 47°01' W 002°30'2 4.2
2018-Jun-16 01:00N 46°60' W 002°32'2 3.9
2018-Jun-16 00:27N 46°58' W 002°34'3 3.4
2018-Jun-15 23:28N 46°56' W 002°37'5 6.1
2018-Jun-15 22:40N 46°52' W 002°32'3 9.5
2018-Jun-15 22:21N 46°50' W 002°29'4 9.3
2018-Jun-15 21:54N 46°48' W 002°24'6 9.6
2018-Jun-15 21:14N 46°44' W 002°17'3 9.2
2018-Jun-15 20:55N 46°42' W 002°13'4 9.2
2018-Jun-15 20:29N 46°39' W 002°09'4 9.2
2018-Jun-15 20:00N 46°36' W 002°04'5 9.1
2018-Jun-15 19:30N 46°33' W 001°59'4 9.0
2018-Jun-15 19:00N 46°31' W 001°54'4 8.7
2018-Jun-15 18:30N 46°29' W 001°48'1 2.0
2018-Jun-15 18:00N 46°30' W 001°47'1 2.4
2018-Jun-15 17:30N 46°29' W 001°49'5 9.6
2018-Jun-15 17:00N 46°30' W 001°55'5 9.9
2018-Jun-15 16:30N 46°31' W 002°02'510.1
2018-Jun-15 16:00N 46°33' W 002°09'810.2
2018-Jun-15 15:15N 46°36' W 002°20'18 3.0
2018-Jun-15 09:19N 46°45' W 002°42'3 8.1
2018-Jun-15 08:59N 46°44' W 002°45'1 1.0
2018-Jun-15 08:10N 46°44' W 002°44'1 3.2
2018-Jun-15 07:55N 46°45' W 002°44'3 7.7
2018-Jun-15 07:30N 46°43' W 002°48'2 1.8
2018-Jun-15 06:32N 46°44' W 002°46'0 2.8
2018-Jun-15 06:30N 46°44' W 002°46'4 7.0
2018-Jun-15 06:00N 46°44' W 002°51'2 3.3
2018-Jun-15 05:27N 46°46' W 002°52'1 2.4
2018-Jun-15 05:00N 46°46' W 002°51'1 0.9
2018-Jun-15 04:08N 46°47' W 002°51'25 9.2
2018-Jun-15 01:24N 47°11' W 002°38'4 8.9
2018-Jun-15 00:58N 47°14' W 002°36'5 9.5
2018-Jun-15 00:29N 47°19' W 002°34'3 5.8
2018-Jun-14 23:58N 47°21' W 002°31'0 0.0
2018-Jun-14 23:30N 47°21' W 002°31'0 0.0
2018-Jun-14 23:00N 47°21' W 002°31'0 0.0
2018-Jun-14 22:30N 47°21' W 002°31'0 0.0
2018-Jun-14 22:00N 47°21' W 002°31'0 0.0
2018-Jun-14 21:31N 47°21' W 002°31'0 0.0
2018-Jun-14 21:00N 47°21' W 002°31'0 0.0
2018-Jun-14 20:31N 47°21' W 002°31'0 0.0
2018-Jun-14 20:01N 47°21' W 002°31'1 2.4
2018-Jun-14 19:30N 47°20' W 002°32'4 8.8
2018-Jun-14 19:00N 47°16' W 002°36'4 8.1
2018-Jun-14 18:30N 47°13' W 002°40'4 7.9
2018-Jun-14 18:00N 47°10' W 002°43'4 7.9
2018-Jun-14 17:29N 47°06' W 002°46'5 7.6
2018-Jun-14 16:53N 47°03' W 002°50'4 5.5
2018-Jun-14 16:08N 46°60' W 002°54'1 4.8
2018-Jun-14 15:59N 46°59' W 002°55'12 1.7
2018-Jun-14 08:39N 46°54' W 003°11'2 2.2
2018-Jun-14 07:44N 46°53' W 003°08'1 4.3
2018-Jun-14 07:29N 46°54' W 003°07'1 0.7
2018-Jun-14 06:42N 46°54' W 003°06'0 0.7
2018-Jun-14 06:30N 46°54' W 003°06'1 1.4
2018-Jun-14 05:52N 46°54' W 003°05'0 0.8
2018-Jun-14 05:19N 46°55' W 003°06'1 3.1
2018-Jun-14 04:59N 46°56' W 003°06'2 3.5
2018-Jun-14 04:28N 46°54' W 003°07'0 0.7
2018-Jun-14 04:00N 46°54' W 003°07'2 2.7
2018-Jun-14 03:24N 46°55' W 003°08'1 1.4
2018-Jun-14 03:00N 46°56' W 003°08'0 0.7
2018-Jun-14 02:30N 46°56' W 003°08'0 0.7
2018-Jun-14 02:00N 46°56' W 003°09'0 0.6
2018-Jun-14 01:30N 46°56' W 003°09'0 0.6
2018-Jun-14 01:00N 46°56' W 003°10'0 0.6
2018-Jun-14 00:29N 46°57' W 003°10'0 0.5
2018-Jun-14 00:00N 46°57' W 003°11'17 3.1
2018-Jun-13 18:39N 47°02' W 002°48'5 3.1
2018-Jun-13 16:59N 47°03' W 002°40'6 9.0
2018-Jun-13 16:17N 46°60' W 002°48'4 9.6
2018-Jun-13 15:52N 46°58' W 002°54'4 9.6
2018-Jun-13 15:29N 46°57' W 002°59'5 9.8
2018-Jun-13 14:58N 46°55' W 003°05'1 0.5
2018-Jun-13 12:29N 46°54' W 003°05'3 2.9
2018-Jun-13 11:27N 46°56' W 003°08'  
Track history (hours):
 
Tides and Currents Weather Stations Pressure Air Temp Water Temp Dewpoint Dewpoint Depression Visibility Wind Speed Wind Dir Waves Ship Positions

F/V Mabon III

Last reported at 2018-Jun-23 11:00 UTC. Time now 2018-Jun-23 14:01 UTC.
Position N 47°03' W 002°27'.

Length 20 m.

Type: Fishing. MMSI: 228042600.

Date/timePositionNaut miles runAvg speedWind from/ knotsBaromVisibWave heightAir tempDewpointWater temp
2018-Jun-23 11:00N 47°03' W 002°27'2 3.3
2018-Jun-23 10:29N 47°02' W 002°29'6 3.6
2018-Jun-23 08:40N 46°57' W 002°35'1 3.4
2018-Jun-23 08:25N 46°57' W 002°36'2 1.0
2018-Jun-23 06:40N 46°55' W 002°37'1 3.0
2018-Jun-23 06:18N 46°56' W 002°36'1 3.0
2018-Jun-23 05:59N 46°57' W 002°35'2 3.2
2018-Jun-23 05:30N 46°58' W 002°34'2 3.4
2018-Jun-23 04:49N 46°60' W 002°32'1 3.7
2018-Jun-23 04:30N 47°01' W 002°31'2 3.9
2018-Jun-23 04:00N 47°02' W 002°29'2 4.0
2018-Jun-23 03:30N 47°03' W 002°26'2 4.1
2018-Jun-23 03:00N 47°05' W 002°24'1 2.6
2018-Jun-23 02:30N 47°04' W 002°25'2 3.1
2018-Jun-23 01:57N 47°03' W 002°27'2 3.3
2018-Jun-23 01:27N 47°02' W 002°29'1 3.3
2018-Jun-23 01:00N 47°01' W 002°31'2 3.4
2018-Jun-23 00:30N 46°59' W 002°32'2 3.4
2018-Jun-23 00:00N 46°58' W 002°34'2 3.4
2018-Jun-22 23:21N 46°56' W 002°36'1 2.4
2018-Jun-22 23:00N 46°56' W 002°37'2 3.0
2018-Jun-22 22:25N 46°55' W 002°39'11 1.0
2018-Jun-22 11:39N 47°02' W 002°28'0 2.0
2018-Jun-22 11:29N 47°02' W 002°28'11 1.3
2018-Jun-22 03:08N 46°58' W 002°43'0 3.1
2018-Jun-22 03:00N 46°58' W 002°43'2 3.0
2018-Jun-22 02:21N 46°56' W 002°41'1 2.5
2018-Jun-22 01:56N 46°55' W 002°41'1 2.6
2018-Jun-22 01:30N 46°54' W 002°40'4 3.1
2018-Jun-22 00:11N 46°51' W 002°36'2 2.7
2018-Jun-21 23:23N 46°49' W 002°35'2 2.7
2018-Jun-21 22:48N 46°48' W 002°33'1 2.6
2018-Jun-21 22:30N 46°47' W 002°32'1 1.0
2018-Jun-21 21:25N 46°48' W 002°31'8 6.5
2018-Jun-21 20:13N 46°44' W 002°20'31 4.9
2018-Jun-21 14:02N 46°56' W 003°02'0 7.7
2018-Jun-21 13:59N 46°55' W 003°02'1 2.6
2018-Jun-21 13:27N 46°54' W 003°04'1 1.7
2018-Jun-21 12:48N 46°54' W 003°05'1 1.7
2018-Jun-21 12:24N 46°54' W 003°05'0 0.8
2018-Jun-21 11:57N 46°54' W 003°05'1 1.2
2018-Jun-21 11:30N 46°53' W 003°05'0 0.7
2018-Jun-21 11:00N 46°53' W 003°06'3 5.4
2018-Jun-21 10:28N 46°53' W 003°10'1 1.3
2018-Jun-21 10:00N 46°53' W 003°09'1 2.2
2018-Jun-21 09:22N 46°54' W 003°07'2 3.9
2018-Jun-21 08:57N 46°53' W 003°09'2 1.7
2018-Jun-21 08:01N 46°53' W 003°07'1 6.0
2018-Jun-21 07:54N 46°54' W 003°07'1 2.6
2018-Jun-21 07:29N 46°55' W 003°08'0 1.0
2018-Jun-21 07:00N 46°55' W 003°09'1 2.5
2018-Jun-21 06:30N 46°54' W 003°10'3 4.3
2018-Jun-21 05:54N 46°55' W 003°07'4 7.6
2018-Jun-21 05:21N 46°55' W 003°01'3 8.4
2018-Jun-21 04:58N 46°55' W 002°56'4 8.7
2018-Jun-21 04:30N 46°55' W 002°50'4 8.7
2018-Jun-21 04:00N 46°55' W 002°44'2 4.2
2018-Jun-21 03:30N 46°56' W 002°41'2 3.2
2018-Jun-21 03:00N 46°57' W 002°42'2 3.0
2018-Jun-21 02:30N 46°59' W 002°43'1 2.7
2018-Jun-21 02:00N 46°58' W 002°45'1 2.7
2018-Jun-21 01:30N 46°58' W 002°47'1 3.0
2018-Jun-21 01:00N 46°56' W 002°46'2 3.2
2018-Jun-21 00:30N 46°55' W 002°45'2 3.5
2018-Jun-21 00:00N 46°53' W 002°43'1 2.8
2018-Jun-20 23:30N 46°52' W 002°42'2 3.2
2018-Jun-20 23:00N 46°51' W 002°40'2 3.1
2018-Jun-20 22:30N 46°51' W 002°38'2 3.0
2018-Jun-20 22:00N 46°51' W 002°36'1 3.0
2018-Jun-20 21:30N 46°49' W 002°35'11 3.5
2018-Jun-20 18:25N 46°44' W 002°21'19 3.4
2018-Jun-20 12:49N 46°55' W 002°43'0 0.6
2018-Jun-20 12:26N 46°55' W 002°44'1 1.9
2018-Jun-20 11:42N 46°56' W 002°44'0 1.5
2018-Jun-20 11:30N 46°56' W 002°44'0 0.8
2018-Jun-20 10:59N 46°56' W 002°44'0 0.6
2018-Jun-20 10:30N 46°56' W 002°45'2 3.1
2018-Jun-20 09:59N 46°56' W 002°47'3 1.7
2018-Jun-20 08:14N 46°58' W 002°43'0 0.7
2018-Jun-20 07:59N 46°58' W 002°44'1 1.1
2018-Jun-20 07:30N 46°58' W 002°44'1 1.1
2018-Jun-20 06:43N 46°58' W 002°43'1 4.8
2018-Jun-20 06:30N 46°59' W 002°42'3 3.7
2018-Jun-20 05:49N 46°58' W 002°46'1 3.3
2018-Jun-20 05:30N 46°57' W 002°47'2 3.2
2018-Jun-20 05:00N 46°56' W 002°46'2 3.3
2018-Jun-20 04:27N 46°55' W 002°44'3 2.6
2018-Jun-20 03:26N 46°54' W 002°40'1 3.0
2018-Jun-20 03:00N 46°55' W 002°40'2 3.2
2018-Jun-20 02:28N 46°57' W 002°42'2 3.4
2018-Jun-20 02:00N 46°58' W 002°43'1 2.4
2018-Jun-20 01:30N 46°58' W 002°45'1 2.8
2018-Jun-20 01:00N 46°58' W 002°47'1 2.8
2018-Jun-20 00:30N 46°57' W 002°46'2 3.3
2018-Jun-20 00:00N 46°55' W 002°45'2 3.2
2018-Jun-19 23:26N 46°54' W 002°43'2 2.7
2018-Jun-19 22:50N 46°54' W 002°41'1 1.9
2018-Jun-19 22:22N 46°55' W 002°40'4 3.3
2018-Jun-19 21:19N 46°57' W 002°35'1 3.5
2018-Jun-19 20:54N 46°58' W 002°34'1 3.5
2018-Jun-19 20:29N 46°59' W 002°33'2 3.6
2018-Jun-19 19:59N 47°00' W 002°31'2 3.5
2018-Jun-19 19:29N 47°02' W 002°29'3 3.7
2018-Jun-19 18:38N 47°03' W 002°26'0 3.6
2018-Jun-19 18:30N 47°03' W 002°26'2 3.4
2018-Jun-19 18:00N 47°02' W 002°28'2 3.8
2018-Jun-19 17:24N 47°01' W 002°31'2 3.9
2018-Jun-19 16:59N 46°59' W 002°32'2 3.7
2018-Jun-19 16:30N 46°58' W 002°34'2 3.7
2018-Jun-19 15:58N 46°56' W 002°36'2 3.5
2018-Jun-19 15:30N 46°55' W 002°37'3 3.8
2018-Jun-19 14:48N 46°55' W 002°41'1 4.3
2018-Jun-19 14:27N 46°56' W 002°43'1 1.0
2018-Jun-19 13:53N 46°56' W 002°44'0 0.1
2018-Jun-19 13:20N 46°56' W 002°44'1 2.5
2018-Jun-19 12:52N 46°56' W 002°45'1 1.8
2018-Jun-19 12:26N 46°56' W 002°46'1 3.1
2018-Jun-19 12:00N 46°57' W 002°46'0 0.9
2018-Jun-19 11:30N 46°57' W 002°47'1 1.7
2018-Jun-19 11:00N 46°56' W 002°47'1 1.4
2018-Jun-19 10:30N 46°56' W 002°47'1 0.8
2018-Jun-19 09:40N 46°56' W 002°47'1 5.2
2018-Jun-19 09:30N 46°57' W 002°46'0 0.7
2018-Jun-19 08:59N 46°57' W 002°46'0 0.9
2018-Jun-19 08:30N 46°57' W 002°46'1 1.6
2018-Jun-19 08:00N 46°58' W 002°47'1 2.3
2018-Jun-19 07:30N 46°56' W 002°46'2 2.3
2018-Jun-19 06:28N 46°58' W 002°44'2 2.9
2018-Jun-19 05:53N 46°58' W 002°42'1 3.3
2018-Jun-19 05:29N 46°57' W 002°41'2 3.3
2018-Jun-19 05:00N 46°55' W 002°40'2 3.3
2018-Jun-19 04:29N 46°54' W 002°41'1 2.7
2018-Jun-19 03:58N 46°54' W 002°43'1 1.9
2018-Jun-19 03:30N 46°54' W 002°44'2 3.1
2018-Jun-19 03:00N 46°53' W 002°43'2 3.2
2018-Jun-19 02:29N 46°52' W 002°41'2 3.2
2018-Jun-19 02:00N 46°51' W 002°40'3 3.0
2018-Jun-19 01:00N 46°49' W 002°36'2 2.9
2018-Jun-19 00:27N 46°48' W 002°35'4 4.1
2018-Jun-18 23:25N 46°46' W 002°29'4 9.3
2018-Jun-18 22:58N 46°46' W 002°23'5 9.0
2018-Jun-18 22:26N 46°43' W 002°17'4 8.7
2018-Jun-18 22:00N 46°41' W 002°13'5 8.8
2018-Jun-18 21:28N 46°38' W 002°07'4 8.9
2018-Jun-18 21:00N 46°35' W 002°03'4 8.9
2018-Jun-18 20:30N 46°32' W 001°58'4 8.9
2018-Jun-18 20:00N 46°30' W 001°53'4 7.5
2018-Jun-18 19:30N 46°29' W 001°47'1 1.9
2018-Jun-18 19:00N 46°30' W 001°47'0 0.0
2018-Jun-18 18:30N 46°30' W 001°47'0 0.0
2018-Jun-18 18:00N 46°30' W 001°47'0 0.4
2018-Jun-18 17:30N 46°30' W 001°47'0 0.0
2018-Jun-18 17:00N 46°30' W 001°47'1 1.0
2018-Jun-18 16:30N 46°29' W 001°48'4 7.7
2018-Jun-18 16:00N 46°30' W 001°53'5 9.5
2018-Jun-18 15:30N 46°32' W 001°59'5 9.5
2018-Jun-18 15:00N 46°35' W 002°05'5 9.5
2018-Jun-18 14:30N 46°37' W 002°11'5 9.0
2018-Jun-18 14:00N 46°39' W 002°17'5 9.0
2018-Jun-18 13:26N 46°41' W 002°24'4 8.9
2018-Jun-18 13:00N 46°44' W 002°28'4 8.9
2018-Jun-18 12:30N 46°46' W 002°33'1 1.2
2018-Jun-18 11:55N 46°47' W 002°34'1 2.0
2018-Jun-18 11:30N 46°48' W 002°34'1 1.4
2018-Jun-18 10:56N 46°48' W 002°35'1 1.4
2018-Jun-18 10:16N 46°49' W 002°35'0 1.3
2018-Jun-18 10:00N 46°49' W 002°36'0 0.5
2018-Jun-18 09:29N 46°49' W 002°36'0 0.4
2018-Jun-18 09:00N 46°49' W 002°36'1 1.8
2018-Jun-18 08:30N 46°49' W 002°34'1 2.4
2018-Jun-18 07:57N 46°50' W 002°36'1 1.3
2018-Jun-18 06:52N 46°50' W 002°34'1 1.5
2018-Jun-18 06:29N 46°50' W 002°35'3 5.0
2018-Jun-18 05:57N 46°51' W 002°38'1 2.9
2018-Jun-18 05:28N 46°51' W 002°36'1 2.9
2018-Jun-18 05:00N 46°49' W 002°35'2 3.0
2018-Jun-18 04:14N 46°48' W 002°33'1 3.2
2018-Jun-18 03:59N 46°47' W 002°32'4 1.3
2018-Jun-18 01:15N 46°51' W 002°34'3 2.5
2018-Jun-18 00:05N 46°52' W 002°37'1 3.1
2018-Jun-17 23:54N 46°52' W 002°38'9 2.9
2018-Jun-17 20:39N 47°00' W 002°31'1 3.5
2018-Jun-17 20:14N 47°01' W 002°30'2 3.5
2018-Jun-17 19:44N 47°03' W 002°28'1 3.4
2018-Jun-17 19:24N 47°03' W 002°26'1 3.4
2018-Jun-17 19:00N 47°04' W 002°25'0 0.3
2018-Jun-17 18:30N 47°04' W 002°25'6 3.4
2018-Jun-17 16:47N 47°00' W 002°31'11 2.1
2018-Jun-17 11:32N 46°56' W 002°46'0 0.3
2018-Jun-17 11:30N 46°56' W 002°46'0 0.4
2018-Jun-17 10:59N 46°56' W 002°46'0 0.7
2018-Jun-17 10:30N 46°56' W 002°46'2 0.9
2018-Jun-17 08:40N 46°55' W 002°45'1 1.9
2018-Jun-17 08:13N 46°56' W 002°45'1 2.1
2018-Jun-17 07:53N 46°55' W 002°46'1 0.7
2018-Jun-17 07:00N 46°56' W 002°46'9 1.7
2018-Jun-17 01:35N 47°03' W 002°39'0 1.8
2018-Jun-17 01:30N 47°03' W 002°39'1 3.0
2018-Jun-17 01:00N 47°02' W 002°41'1 2.3
2018-Jun-17 00:30N 47°01' W 002°41'2 3.1
2018-Jun-16 23:59N 46°60' W 002°39'1 3.0
2018-Jun-16 23:30N 46°58' W 002°38'2 2.8
2018-Jun-16 22:59N 46°57' W 002°38'1 2.9
2018-Jun-16 22:29N 46°56' W 002°38'12 2.8
2018-Jun-16 18:16N 47°04' W 002°25'1 2.7
2018-Jun-16 18:00N 47°04' W 002°26'1 2.8
2018-Jun-16 17:28N 47°04' W 002°28'3 3.2
2018-Jun-16 16:38N 47°02' W 002°30'12 1.4
2018-Jun-16 08:27N 46°56' W 002°45'8 2.7
2018-Jun-16 05:22N 47°00' W 002°35'3 3.3
2018-Jun-16 04:19N 47°02' W 002°30'1 3.0
2018-Jun-16 04:00N 47°03' W 002°29'2 3.2
2018-Jun-16 03:30N 47°04' W 002°28'2 2.8
2018-Jun-16 02:53N 47°05' W 002°26'1 1.9
2018-Jun-16 02:30N 47°04' W 002°25'2 4.3
2018-Jun-16 02:00N 47°03' W 002°27'2 4.3
2018-Jun-16 01:27N 47°01' W 002°30'2 4.2
2018-Jun-16 01:00N 46°60' W 002°32'2 3.9
2018-Jun-16 00:27N 46°58' W 002°34'3 3.4
2018-Jun-15 23:28N 46°56' W 002°37'5 6.1
2018-Jun-15 22:40N 46°52' W 002°32'3 9.5
2018-Jun-15 22:21N 46°50' W 002°29'4 9.3
2018-Jun-15 21:54N 46°48' W 002°24'6 9.6
2018-Jun-15 21:14N 46°44' W 002°17'3 9.2
2018-Jun-15 20:55N 46°42' W 002°13'4 9.2
2018-Jun-15 20:29N 46°39' W 002°09'4 9.2
2018-Jun-15 20:00N 46°36' W 002°04'5 9.1
2018-Jun-15 19:30N 46°33' W 001°59'4 9.0
2018-Jun-15 19:00N 46°31' W 001°54'4 8.7
2018-Jun-15 18:30N 46°29' W 001°48'1 2.0
2018-Jun-15 18:00N 46°30' W 001°47'1 2.4
2018-Jun-15 17:30N 46°29' W 001°49'5 9.6
2018-Jun-15 17:00N 46°30' W 001°55'5 9.9
2018-Jun-15 16:30N 46°31' W 002°02'510.1
2018-Jun-15 16:00N 46°33' W 002°09'810.2
2018-Jun-15 15:15N 46°36' W 002°20'18 3.0
2018-Jun-15 09:19N 46°45' W 002°42'3 8.1
2018-Jun-15 08:59N 46°44' W 002°45'1 1.0
2018-Jun-15 08:10N 46°44' W 002°44'1 3.2
2018-Jun-15 07:55N 46°45' W 002°44'3 7.7
2018-Jun-15 07:30N 46°43' W 002°48'2 1.8
2018-Jun-15 06:32N 46°44' W 002°46'0 2.8
2018-Jun-15 06:30N 46°44' W 002°46'4 7.0
2018-Jun-15 06:00N 46°44' W 002°51'2 3.3
2018-Jun-15 05:27N 46°46' W 002°52'1 2.4
2018-Jun-15 05:00N 46°46' W 002°51'1 0.9
2018-Jun-15 04:08N 46°47' W 002°51'25 9.2
2018-Jun-15 01:24N 47°11' W 002°38'4 8.9
2018-Jun-15 00:58N 47°14' W 002°36'5 9.5
2018-Jun-15 00:29N 47°19' W 002°34'3 5.8
2018-Jun-14 23:58N 47°21' W 002°31'0 0.0
2018-Jun-14 23:30N 47°21' W 002°31'0 0.0
2018-Jun-14 23:00N 47°21' W 002°31'0 0.0
2018-Jun-14 22:30N 47°21' W 002°31'0 0.0
2018-Jun-14 22:00N 47°21' W 002°31'0 0.0
2018-Jun-14 21:31N 47°21' W 002°31'0 0.0
2018-Jun-14 21:00N 47°21' W 002°31'0 0.0
2018-Jun-14 20:31N 47°21' W 002°31'0 0.0
2018-Jun-14 20:01N 47°21' W 002°31'1 2.4
2018-Jun-14 19:30N 47°20' W 002°32'4 8.8
2018-Jun-14 19:00N 47°16' W 002°36'4 8.1
2018-Jun-14 18:30N 47°13' W 002°40'4 7.9
2018-Jun-14 18:00N 47°10' W 002°43'4 7.9
2018-Jun-14 17:29N 47°06' W 002°46'5 7.6
2018-Jun-14 16:53N 47°03' W 002°50'4 5.5
2018-Jun-14 16:08N 46°60' W 002°54'1 4.8
2018-Jun-14 15:59N 46°59' W 002°55'12 1.7
2018-Jun-14 08:39N 46°54' W 003°11'2 2.2
2018-Jun-14 07:44N 46°53' W 003°08'1 4.3
2018-Jun-14 07:29N 46°54' W 003°07'1 0.7
2018-Jun-14 06:42N 46°54' W 003°06'0 0.7
2018-Jun-14 06:30N 46°54' W 003°06'1 1.4
2018-Jun-14 05:52N 46°54' W 003°05'0 0.8
2018-Jun-14 05:19N 46°55' W 003°06'1 3.1
2018-Jun-14 04:59N 46°56' W 003°06'2 3.5
2018-Jun-14 04:28N 46°54' W 003°07'0 0.7
2018-Jun-14 04:00N 46°54' W 003°07'2 2.7
2018-Jun-14 03:24N 46°55' W 003°08'1 1.4
2018-Jun-14 03:00N 46°56' W 003°08'0 0.7
2018-Jun-14 02:30N 46°56' W 003°08'0 0.7
2018-Jun-14 02:00N 46°56' W 003°09'0 0.6
2018-Jun-14 01:30N 46°56' W 003°09'0 0.6
2018-Jun-14 01:00N 46°56' W 003°10'0 0.6
2018-Jun-14 00:29N 46°57' W 003°10'0 0.5
2018-Jun-14 00:00N 46°57' W 003°11'17 3.1
2018-Jun-13 18:39N 47°02' W 002°48'5 3.1
2018-Jun-13 16:59N 47°03' W 002°40'6 9.0
2018-Jun-13 16:17N 46°60' W 002°48'4 9.6
2018-Jun-13 15:52N 46°58' W 002°54'4 9.6
2018-Jun-13 15:29N 46°57' W 002°59'5 9.8
2018-Jun-13 14:58N 46°55' W 003°05'1 0.5
2018-Jun-13 12:29N 46°54' W 003°05'3 2.9
2018-Jun-13 11:27N 46°56' W 003°08'  

Dump ship's entire track history